sensor_id;sensor_type;location;lat;lon;timestamp;temperature;humidity
5631;DHT22;2837;50.990;7.124;2024-02-21T06:01:57;10.50;99.90
5631;DHT22;2837;50.990;7.124;2024-02-21T06:04:23;10.50;99.90
5631;DHT22;2837;50.990;7.124;2024-02-21T06:06:49;10.40;99.90
5631;DHT22;2837;50.990;7.124;2024-02-21T06:11:40;10.40;99.90
5631;DHT22;2837;50.990;7.124;2024-02-21T06:14:06;10.30;99.90
5631;DHT22;2837;50.990;7.124;2024-02-21T06:16:31;10.40;99.90
5631;DHT22;2837;50.990;7.124;2024-02-21T06:18:57;10.40;99.90
5631;DHT22;2837;50.990;7.124;2024-02-21T06:21:22;10.40;99.90
5631;DHT22;2837;50.990;7.124;2024-02-21T06:23:48;10.40;99.90
5631;DHT22;2837;50.990;7.124;2024-02-21T06:26:13;10.50;99.90
5631;DHT22;2837;50.990;7.124;2024-02-21T06:28:39;10.40;99.90
5631;DHT22;2837;50.990;7.124;2024-02-21T06:31:04;10.40;99.90
5631;DHT22;2837;50.990;7.124;2024-02-21T06:33:30;10.40;99.90
5631;DHT22;2837;50.990;7.124;2024-02-21T06:35:56;10.40;99.90
5631;DHT22;2837;50.990;7.124;2024-02-21T06:38:22;10.40;99.90
5631;DHT22;2837;50.990;7.124;2024-02-21T06:40:47;10.30;99.90
5631;DHT22;2837;50.990;7.124;2024-02-21T06:43:17;10.40;99.90
5631;DHT22;2837;50.990;7.124;2024-02-21T06:50:38;10.40;99.90
5631;DHT22;2837;50.990;7.124;2024-02-21T06:53:04;10.40;99.90
5631;DHT22;2837;50.990;7.124;2024-02-21T06:55:29;10.40;99.90
5631;DHT22;2837;50.990;7.124;2024-02-21T06:57:55;10.50;99.90
5631;DHT22;2837;50.990;7.124;2024-02-21T07:00:21;10.40;99.90
5631;DHT22;2837;50.990;7.124;2024-02-21T07:02:48;10.40;99.90
5631;DHT22;2837;50.990;7.124;2024-02-21T07:05:14;10.40;99.90
5631;DHT22;2837;50.990;7.124;2024-02-21T07:07:39;10.50;99.90
5631;DHT22;2837;50.990;7.124;2024-02-21T07:10:06;10.40;99.90
5631;DHT22;2837;50.990;7.124;2024-02-21T07:14:58;10.40;99.90
5631;DHT22;2837;50.990;7.124;2024-02-21T07:17:23;10.50;99.90
5631;DHT22;2837;50.990;7.124;2024-02-21T07:22:15;10.50;99.90
5631;DHT22;2837;50.990;7.124;2024-02-21T07:24:40;10.50;99.90
5631;DHT22;2837;50.990;7.124;2024-02-21T07:29:32;10.50;99.90
5631;DHT22;2837;50.990;7.124;2024-02-21T07:34:23;10.50;99.90
5631;DHT22;2837;50.990;7.124;2024-02-21T07:36:49;10.50;99.90
5631;DHT22;2837;50.990;7.124;2024-02-21T07:56:21;10.60;99.90
5631;DHT22;2837;50.990;7.124;2024-02-21T07:58:46;10.50;99.90
5631;DHT22;2837;50.990;7.124;2024-02-21T08:01:18;10.60;99.90
5631;DHT22;2837;50.990;7.124;2024-02-21T08:03:46;10.60;99.90
5631;DHT22;2837;50.990;7.124;2024-02-21T08:11:04;10.70;99.90
5631;DHT22;2837;50.990;7.124;2024-02-21T08:13:30;10.90;99.90
5631;DHT22;2837;50.990;7.124;2024-02-21T08:15:56;10.80;99.90
5631;DHT22;2837;50.990;7.124;2024-02-21T08:18:22;10.70;99.90
5631;DHT22;2837;50.990;7.124;2024-02-21T08:20:48;10.60;99.90
5631;DHT22;2837;50.990;7.124;2024-02-21T08:23:16;10.70;99.90
5631;DHT22;2837;50.990;7.124;2024-02-21T08:30:33;10.80;99.90
5631;DHT22;2837;50.990;7.124;2024-02-21T08:35:25;10.80;99.90
5631;DHT22;2837;50.990;7.124;2024-02-21T08:37:51;10.70;99.90
5631;DHT22;2837;50.990;7.124;2024-02-21T08:40:16;10.70;99.90
5631;DHT22;2837;50.990;7.124;2024-02-21T08:42:47;10.80;99.90
5631;DHT22;2837;50.990;7.124;2024-02-21T08:45:13;10.80;99.90
5631;DHT22;2837;50.990;7.124;2024-02-21T08:47:41;10.80;99.90
5631;DHT22;2837;50.990;7.124;2024-02-21T08:50:08;10.90;99.90
5631;DHT22;2837;50.990;7.124;2024-02-21T08:52:37;10.80;99.90
5631;DHT22;2837;50.990;7.124;2024-02-21T08:55:02;10.80;99.90
5631;DHT22;2837;50.990;7.124;2024-02-21T08:59:54;11.00;99.90
5631;DHT22;2837;50.990;7.124;2024-02-21T09:02:19;10.90;99.90
5631;DHT22;2837;50.990;7.124;2024-02-21T09:04:45;10.90;99.90
5631;DHT22;2837;50.990;7.124;2024-02-21T09:12:06;11.00;99.90
5631;DHT22;2837;50.990;7.124;2024-02-21T09:14:33;11.00;99.90
5631;DHT22;2837;50.990;7.124;2024-02-21T09:16:59;11.00;99.90
5631;DHT22;2837;50.990;7.124;2024-02-21T09:19:24;11.00;99.90
5631;DHT22;2837;50.990;7.124;2024-02-21T09:24:16;11.20;99.90
5631;DHT22;2837;50.990;7.124;2024-02-21T09:26:41;11.30;99.90
5631;DHT22;2837;50.990;7.124;2024-02-21T09:29:07;11.30;99.90
5631;DHT22;2837;50.990;7.124;2024-02-21T09:31:33;11.40;99.90
5631;DHT22;2837;50.990;7.124;2024-02-21T09:36:24;11.40;99.90
5631;DHT22;2837;50.990;7.124;2024-02-21T09:38:50;11.40;99.90
5631;DHT22;2837;50.990;7.124;2024-02-21T09:41:25;11.50;99.90
5631;DHT22;2837;50.990;7.124;2024-02-21T09:46:19;11.40;99.90
5631;DHT22;2837;50.990;7.124;2024-02-21T09:53:49;11.50;99.90
5631;DHT22;2837;50.990;7.124;2024-02-21T09:56:15;11.50;99.90
5631;DHT22;2837;50.990;7.124;2024-02-21T10:01:06;11.50;99.90
5631;DHT22;2837;50.990;7.124;2024-02-21T10:03:32;11.50;99.90
5631;DHT22;2837;50.990;7.124;2024-02-21T10:08:28;11.50;99.90
5631;DHT22;2837;50.990;7.124;2024-02-21T10:10:53;11.50;99.90
5631;DHT22;2837;50.990;7.124;2024-02-21T10:13:26;11.50;99.90
5631;DHT22;2837;50.990;7.124;2024-02-21T10:18:28;11.60;99.90
5631;DHT22;2837;50.990;7.124;2024-02-21T10:21:04;11.60;99.90
5631;DHT22;2837;50.990;7.124;2024-02-21T10:23:44;11.60;99.90
5631;DHT22;2837;50.990;7.124;2024-02-21T10:26:10;11.60;99.90
5631;DHT22;2837;50.990;7.124;2024-02-21T10:28:37;11.60;99.90
5631;DHT22;2837;50.990;7.124;2024-02-21T10:31:10;11.80;99.90
5631;DHT22;2837;50.990;7.124;2024-02-21T10:33:39;11.70;99.90
5631;DHT22;2837;50.990;7.124;2024-02-21T10:36:08;11.80;99.90
5631;DHT22;2837;50.990;7.124;2024-02-21T10:38:39;11.70;99.90
5631;DHT22;2837;50.990;7.124;2024-02-21T10:41:05;11.60;99.90
5631;DHT22;2837;50.990;7.124;2024-02-21T10:43:38;11.70;99.90
5631;DHT22;2837;50.990;7.124;2024-02-21T10:46:08;11.80;99.90
5631;DHT22;2837;50.990;7.124;2024-02-21T10:48:45;11.90;99.90
5631;DHT22;2837;50.990;7.124;2024-02-21T10:53:47;11.90;99.90
5631;DHT22;2837;50.990;7.124;2024-02-21T10:56:30;11.90;99.90
5631;DHT22;2837;50.990;7.124;2024-02-21T10:59:01;12.00;99.90
5631;DHT22;2837;50.990;7.124;2024-02-21T11:01:28;12.00;99.90
5631;DHT22;2837;50.990;7.124;2024-02-21T11:03:58;12.10;99.90
5631;DHT22;2837;50.990;7.124;2024-02-21T11:09:04;12.10;99.90
5631;DHT22;2837;50.990;7.124;2024-02-21T11:11:33;12.00;99.90
5631;DHT22;2837;50.990;7.124;2024-02-21T11:14:10;12.10;99.90
5631;DHT22;2837;50.990;7.124;2024-02-21T11:16:41;12.20;99.90
5631;DHT22;2837;50.990;7.124;2024-02-21T11:19:20;12.20;99.90
5631;DHT22;2837;50.990;7.124;2024-02-21T11:26:40;12.20;99.90
5631;DHT22;2837;50.990;7.124;2024-02-21T11:29:07;12.20;99.90
5631;DHT22;2837;50.990;7.124;2024-02-21T11:31:42;12.30;99.90
5631;DHT22;2837;50.990;7.124;2024-02-21T11:34:12;12.20;99.90
5631;DHT22;2837;50.990;7.124;2024-02-21T11:36:55;12.20;99.90
5631;DHT22;2837;50.990;7.124;2024-02-21T11:39:23;12.20;99.90
5631;DHT22;2837;50.990;7.124;2024-02-21T11:42:19;12.30;99.90
5631;DHT22;2837;50.990;7.124;2024-02-21T11:44:45;12.20;99.90
5631;DHT22;2837;50.990;7.124;2024-02-21T11:47:11;12.30;99.90
5631;DHT22;2837;50.990;7.124;2024-02-21T11:49:45;12.40;99.90
5631;DHT22;2837;50.990;7.124;2024-02-21T11:52:12;12.40;99.90
5631;DHT22;2837;50.990;7.124;2024-02-21T11:57:05;12.40;99.90
5631;DHT22;2837;50.990;7.124;2024-02-21T12:02:01;12.30;99.90
5631;DHT22;2837;50.990;7.124;2024-02-21T12:04:29;12.40;99.90
5631;DHT22;2837;50.990;7.124;2024-02-21T12:06:57;12.40;99.90
5631;DHT22;2837;50.990;7.124;2024-02-21T12:09:23;12.50;99.90
5631;DHT22;2837;50.990;7.124;2024-02-21T12:11:59;12.40;99.90
5631;DHT22;2837;50.990;7.124;2024-02-21T12:14:25;12.40;99.90
5631;DHT22;2837;50.990;7.124;2024-02-21T12:19:17;12.40;99.90
5631;DHT22;2837;50.990;7.124;2024-02-21T12:21:43;12.40;99.90
5631;DHT22;2837;50.990;7.124;2024-02-21T12:29:05;12.40;99.90
5631;DHT22;2837;50.990;7.124;2024-02-21T12:31:31;12.50;99.90
5631;DHT22;2837;50.990;7.124;2024-02-21T12:36:23;12.50;99.90
5631;DHT22;2837;50.990;7.124;2024-02-21T12:41:15;12.50;99.90
5631;DHT22;2837;50.990;7.124;2024-02-21T12:43:41;12.50;99.90
5631;DHT22;2837;50.990;7.124;2024-02-21T12:46:07;12.60;99.90
5631;DHT22;2837;50.990;7.124;2024-02-21T12:50:59;12.60;99.90
5631;DHT22;2837;50.990;7.124;2024-02-21T12:53:25;12.60;99.90
5631;DHT22;2837;50.990;7.124;2024-02-21T12:58:17;12.70;99.90
5631;DHT22;2837;50.990;7.124;2024-02-21T13:00:43;12.70;99.90
5631;DHT22;2837;50.990;7.124;2024-02-21T13:05:35;12.70;99.90
5631;DHT22;2837;50.990;7.124;2024-02-21T13:08:01;12.70;99.90
5631;DHT22;2837;50.990;7.124;2024-02-21T13:12:53;12.60;99.90
5631;DHT22;2837;50.990;7.124;2024-02-21T13:15:20;12.60;99.90
5631;DHT22;2837;50.990;7.124;2024-02-21T13:17:45;12.60;99.90
5631;DHT22;2837;50.990;7.124;2024-02-21T13:20:11;12.70;99.90
5631;DHT22;2837;50.990;7.124;2024-02-21T13:22:37;12.60;99.90
5631;DHT22;2837;50.990;7.124;2024-02-21T13:25:04;12.60;99.90
5631;DHT22;2837;50.990;7.124;2024-02-21T13:29:56;12.60;99.90
5631;DHT22;2837;50.990;7.124;2024-02-21T13:32:21;12.70;99.90
5631;DHT22;2837;50.990;7.124;2024-02-21T13:37:13;12.70;99.90
5631;DHT22;2837;50.990;7.124;2024-02-21T13:39:40;12.70;99.90
5631;DHT22;2837;50.990;7.124;2024-02-21T13:42:05;12.80;99.90
5631;DHT22;2837;50.990;7.124;2024-02-21T13:44:32;12.70;99.90
5631;DHT22;2837;50.990;7.124;2024-02-21T13:51:49;12.70;99.90
5631;DHT22;2837;50.990;7.124;2024-02-21T13:54:15;12.70;99.90
5631;DHT22;2837;50.990;7.124;2024-02-21T13:56:44;12.80;99.90
5631;DHT22;2837;50.990;7.124;2024-02-21T13:59:11;12.80;99.90
5631;DHT22;2837;50.990;7.124;2024-02-21T14:01:37;12.70;99.90
5631;DHT22;2837;50.990;7.124;2024-02-21T14:04:03;12.70;99.90
5631;DHT22;2837;50.990;7.124;2024-02-21T14:08:55;12.70;99.90
5631;DHT22;2837;50.990;7.124;2024-02-21T14:11:21;12.70;99.90
5631;DHT22;2837;50.990;7.124;2024-02-21T14:16:12;12.70;99.90
5631;DHT22;2837;50.990;7.124;2024-02-21T14:18:41;12.70;99.90
5631;DHT22;2837;50.990;7.124;2024-02-21T14:23:36;12.60;99.90
5631;DHT22;2837;50.990;7.124;2024-02-21T14:26:03;12.70;99.90
5631;DHT22;2837;50.990;7.124;2024-02-21T14:28:29;12.60;99.90
5631;DHT22;2837;50.990;7.124;2024-02-21T14:30:54;12.50;99.90
5631;DHT22;2837;50.990;7.124;2024-02-21T14:35:48;12.70;99.90
5631;DHT22;2837;50.990;7.124;2024-02-21T14:40:40;12.60;99.90
5631;DHT22;2837;50.990;7.124;2024-02-21T14:47:57;12.60;99.90
5631;DHT22;2837;50.990;7.124;2024-02-21T14:50:23;12.60;99.90
5631;DHT22;2837;50.990;7.124;2024-02-21T14:55:15;12.60;99.90
5631;DHT22;2837;50.990;7.124;2024-02-21T14:57:40;12.50;99.90
5631;DHT22;2837;50.990;7.124;2024-02-21T15:00:08;12.50;99.90
5631;DHT22;2837;50.990;7.124;2024-02-21T15:02:36;12.40;99.90
5631;DHT22;2837;50.990;7.124;2024-02-21T15:05:02;12.50;99.90
5631;DHT22;2837;50.990;7.124;2024-02-21T15:07:29;12.50;99.90
5631;DHT22;2837;50.990;7.124;2024-02-21T15:09:54;12.50;99.90
5631;DHT22;2837;50.990;7.124;2024-02-21T15:12:20;12.40;99.90
5631;DHT22;2837;50.990;7.124;2024-02-21T15:14:47;12.50;99.90
5631;DHT22;2837;50.990;7.124;2024-02-21T15:17:13;12.40;99.90
5631;DHT22;2837;50.990;7.124;2024-02-21T15:19:39;12.50;99.90
5631;DHT22;2837;50.990;7.124;2024-02-21T15:22:11;12.40;99.90
5631;DHT22;2837;50.990;7.124;2024-02-21T15:24:38;12.50;99.90
5631;DHT22;2837;50.990;7.124;2024-02-21T15:29:30;12.40;99.90
5631;DHT22;2837;50.990;7.124;2024-02-21T15:31:55;12.40;99.90
5631;DHT22;2837;50.990;7.124;2024-02-21T15:34:21;12.40;99.90
5631;DHT22;2837;50.990;7.124;2024-02-21T15:36:47;12.40;99.90
5631;DHT22;2837;50.990;7.124;2024-02-21T15:41:38;12.20;99.90
5631;DHT22;2837;50.990;7.124;2024-02-21T15:44:04;12.30;99.90
5631;DHT22;2837;50.990;7.124;2024-02-21T15:46:30;12.30;99.90
5631;DHT22;2837;50.990;7.124;2024-02-21T15:49:05;12.20;99.90
5631;DHT22;2837;50.990;7.124;2024-02-21T15:51:31;12.20;99.90
5631;DHT22;2837;50.990;7.124;2024-02-21T15:58:50;12.20;99.90
5631;DHT22;2837;50.990;7.124;2024-02-21T16:06:08;12.10;99.90
5631;DHT22;2837;50.990;7.124;2024-02-21T16:08:34;12.10;99.90
5631;DHT22;2837;50.990;7.124;2024-02-21T16:11:05;12.10;99.90
5631;DHT22;2837;50.990;7.124;2024-02-21T16:13:30;12.20;99.90
5631;DHT22;2837;50.990;7.124;2024-02-21T16:15:56;12.10;99.90
5631;DHT22;2837;50.990;7.124;2024-02-21T16:20:49;12.10;99.90
5631;DHT22;2837;50.990;7.124;2024-02-21T16:23:15;12.00;99.90
5631;DHT22;2837;50.990;7.124;2024-02-21T16:25:41;12.00;99.90
5631;DHT22;2837;50.990;7.124;2024-02-21T16:28:07;12.00;99.90
5631;DHT22;2837;50.990;7.124;2024-02-21T16:30:36;12.00;99.90
5631;DHT22;2837;50.990;7.124;2024-02-21T16:33:02;12.00;99.90
5631;DHT22;2837;50.990;7.124;2024-02-21T16:35:28;12.10;99.90
5631;DHT22;2837;50.990;7.124;2024-02-21T16:42:46;11.90;99.90
5631;DHT22;2837;50.990;7.124;2024-02-21T16:47:40;12.00;99.90
5631;DHT22;2837;50.990;7.124;2024-02-21T16:50:07;11.90;99.90
5631;DHT22;2837;50.990;7.124;2024-02-21T16:52:33;11.90;99.90
5631;DHT22;2837;50.990;7.124;2024-02-21T16:57:25;11.90;99.90
5631;DHT22;2837;50.990;7.124;2024-02-21T17:02:16;11.90;99.90
5631;DHT22;2837;50.990;7.124;2024-02-21T17:04:42;11.90;99.90
5631;DHT22;2837;50.990;7.124;2024-02-21T17:07:08;11.90;99.90
5631;DHT22;2837;50.990;7.124;2024-02-21T17:09:34;11.90;99.90
5631;DHT22;2837;50.990;7.124;2024-02-21T17:12:02;11.80;99.90
5631;DHT22;2837;50.990;7.124;2024-02-21T17:14:30;11.80;99.90
5631;DHT22;2837;50.990;7.124;2024-02-21T17:19:21;11.70;99.90
5631;DHT22;2837;50.990;7.124;2024-02-21T17:26:39;11.70;99.90
5631;DHT22;2837;50.990;7.124;2024-02-21T17:29:04;11.70;99.90
5631;DHT22;2837;50.990;7.124;2024-02-21T17:31:30;11.60;99.90
5631;DHT22;2837;50.990;7.124;2024-02-21T17:38:48;11.50;99.90
5631;DHT22;2837;50.990;7.124;2024-02-21T17:43:42;11.60;99.90
5631;DHT22;2837;50.990;7.124;2024-02-21T17:46:08;11.50;99.90
5631;DHT22;2837;50.990;7.124;2024-02-21T17:48:36;11.50;99.90
5631;DHT22;2837;50.990;7.124;2024-02-21T17:51:02;11.50;99.90
5631;DHT22;2837;50.990;7.124;2024-02-21T17:55:56;11.40;99.90
5631;DHT22;2837;50.990;7.124;2024-02-21T17:58:21;11.30;99.90
5631;DHT22;2837;50.990;7.124;2024-02-21T18:00:47;11.30;99.90
5631;DHT22;2837;50.990;7.124;2024-02-21T18:05:41;11.20;99.90
5631;DHT22;2837;50.990;7.124;2024-02-21T18:10:35;11.10;99.90
5631;DHT22;2837;50.990;7.124;2024-02-21T18:13:04;11.00;99.90
5631;DHT22;2837;50.990;7.124;2024-02-21T18:15:31;11.00;99.90
5631;DHT22;2837;50.990;7.124;2024-02-21T18:20:23;10.90;99.90
5631;DHT22;2837;50.990;7.124;2024-02-21T18:25:14;10.80;99.90
5631;DHT22;2837;50.990;7.124;2024-02-21T18:27:40;10.70;99.90
5631;DHT22;2837;50.990;7.124;2024-02-21T18:30:06;10.70;99.90
5631;DHT22;2837;50.990;7.124;2024-02-21T18:32:32;10.80;99.90
5631;DHT22;2837;50.990;7.124;2024-02-21T18:42:18;10.60;99.90
5631;DHT22;2837;50.990;7.124;2024-02-21T19:06:39;10.20;99.90
5631;DHT22;2837;50.990;7.124;2024-02-21T19:31:03;10.20;99.90
5631;DHT22;2837;50.990;7.124;2024-02-21T19:50:40;10.20;99.90
5631;DHT22;2837;50.990;7.124;2024-02-21T19:57:57;10.10;99.90
5631;DHT22;2837;50.990;7.124;2024-02-21T21:08:47;10.20;99.90
5631;DHT22;2837;50.990;7.124;2024-02-21T21:16:05;10.20;99.90
5631;DHT22;2837;50.990;7.124;2024-02-21T21:20:58;10.20;99.90
5631;DHT22;2837;50.990;7.124;2024-02-21T21:57:37;10.10;99.90
